Time;durP1;ratioP1;P1;durP2;ratioP2;P2;SDS_P1;SDS_P2;PMS_P1;PMS_P2;Temp;Humidity;BMP_temperature;BMP_pressure;BME280_temperature;BME280_humidity;BME280_pressure;Samples;Min_cycle;Max_cycle;Signal;HPM_P1;HPM_P2
2022/09/17 00:00:02;;;;;;;1.52;1.00;;;;;;;;;;5082010;28;20242;-69
2022/09/17 00:02:29;;;;;;;1.10;0.95;;;;;;;;;;5081844;28;20640;-69
2022/09/17 00:04:55;;;;;;;1.15;0.80;;;;;;;;;;5081716;28;20247;-69
2022/09/17 00:07:21;;;;;;;0.85;0.80;;;;;;;;;;5082142;28;20218;-69
2022/09/17 00:09:48;;;;;;;0.98;0.98;;;;;;;;;;5081806;28;20196;-69
2022/09/17 00:12:15;;;;;;;0.98;0.88;;;;;;;;;;5081781;28;20235;-69
2022/09/17 00:14:41;;;;;;;1.00;1.00;;;;;;;;;;5081901;28;20216;-69
2022/09/17 00:17:08;;;;;;;1.08;1.00;;;;;;;;;;5081717;28;20242;-69
2022/09/17 00:19:34;;;;;;;0.70;0.70;;;;;;;;;;5081711;28;20234;-69
2022/09/17 00:22:00;;;;;;;1.20;0.90;;;;;;;;;;5081939;28;20196;-69
2022/09/17 00:24:27;;;;;;;0.75;0.70;;;;;;;;;;5081731;28;20193;-69
2022/09/17 00:26:53;;;;;;;2.70;0.60;;;;;;;;;;5081715;28;20204;-69
2022/09/17 00:29:20;;;;;;;0.50;0.50;;;;;;;;;;5081681;28;20196;-69
2022/09/17 00:31:47;;;;;;;0.82;0.60;;;;;;;;;;5081703;28;20196;-69
2022/09/17 00:34:13;;;;;;;1.95;0.60;;;;;;;;;;5081234;28;20266;-69
2022/09/17 00:36:40;;;;;;;0.50;0.50;;;;;;;;;;5081835;28;20196;-69
2022/09/17 00:39:07;;;;;;;0.60;0.60;;;;;;;;;;5081855;28;20196;-69
2022/09/17 00:41:34;;;;;;;2.13;0.50;;;;;;;;;;5081638;28;20269;-69
2022/09/17 00:44:02;;;;;;;0.98;0.80;;;;;;;;;;5081887;28;20200;-69
2022/09/17 00:46:32;;;;;;;3.45;0.77;;;;;;;;;;5085088;28;20208;-69
2022/09/17 00:49:00;;;;;;;0.98;0.63;;;;;;;;;;5085556;28;20497;-69
2022/09/17 00:51:28;;;;;;;3.15;0.88;;;;;;;;;;5085104;28;20204;-69
2022/09/17 00:53:55;;;;;;;1.27;0.63;;;;;;;;;;5084893;28;20200;-68
2022/09/17 00:56:23;;;;;;;0.80;0.80;;;;;;;;;;5085269;28;20525;-69
2022/09/17 00:58:50;;;;;;;1.48;0.95;;;;;;;;;;5084993;28;20219;-69
2022/09/17 01:01:16;;;;;;;0.80;0.80;;;;;;;;;;5085173;28;20204;-69
2022/09/17 01:03:44;;;;;;;1.83;0.90;;;;;;;;;;5084972;28;20197;-69
2022/09/17 01:06:16;;;;;;;2.38;0.80;;;;;;;;;;5084272;28;20583;-69
2022/09/17 01:08:47;;;;;;;1.17;0.90;;;;;;;;;;5084819;28;20216;-69
2022/09/17 01:11:28;;;;;;;1.55;0.80;;;;;;;;;;5084799;28;20196;-69
2022/09/17 01:13:59;;;;;;;2.53;0.70;;;;;;;;;;5084857;28;20242;-69
2022/09/17 01:16:30;;;;;;;1.00;1.00;;;;;;;;;;5084682;28;20213;-69
2022/09/17 01:19:03;;;;;;;1.20;0.90;;;;;;;;;;5085103;28;20242;-69
2022/09/17 01:21:35;;;;;;;1.38;0.70;;;;;;;;;;5084707;28;20201;-69
2022/09/17 01:24:14;;;;;;;2.40;0.80;;;;;;;;;;5084242;28;20196;-69
2022/09/17 01:26:54;;;;;;;1.15;1.05;;;;;;;;;;5084484;28;20204;-69
2022/09/17 01:29:29;;;;;;;1.85;0.90;;;;;;;;;;5084569;28;20356;-69
2022/09/17 01:31:59;;;;;;;1.73;0.80;;;;;;;;;;5084473;28;20387;-69
2022/09/17 01:34:28;;;;;;;0.82;0.80;;;;;;;;;;5083433;28;20414;-69
2022/09/17 01:36:59;;;;;;;2.50;0.88;;;;;;;;;;5084190;28;20196;-69
2022/09/17 01:39:34;;;;;;;1.38;0.70;;;;;;;;;;5084545;28;20352;-69
2022/09/17 01:42:05;;;;;;;1.85;0.93;;;;;;;;;;5084392;28;20412;-69
2022/09/17 01:44:34;;;;;;;3.90;1.00;;;;;;;;;;5084076;28;20200;-67
2022/09/17 01:47:04;;;;;;;1.10;0.80;;;;;;;;;;5084104;28;20375;-68
2022/09/17 01:49:32;;;;;;;1.00;0.93;;;;;;;;;;5084074;28;20200;-67
2022/09/17 01:52:00;;;;;;;2.25;0.95;;;;;;;;;;5084399;28;20205;-67
2022/09/17 01:54:29;;;;;;;0.77;0.77;;;;;;;;;;5083901;28;20220;-69
2022/09/17 01:57:00;;;;;;;0.85;0.80;;;;;;;;;;5083402;28;20196;-69
2022/09/17 01:59:28;;;;;;;1.02;0.88;;;;;;;;;;5083979;28;20196;-67
2022/09/17 02:01:57;;;;;;;1.38;0.90;;;;;;;;;;5084297;28;20201;-69
2022/09/17 02:04:26;;;;;;;4.75;1.30;;;;;;;;;;5083804;28;20504;-69
2022/09/17 02:06:56;;;;;;;1.20;1.00;;;;;;;;;;5083584;28;20197;-67
2022/09/17 02:09:24;;;;;;;1.17;0.88;;;;;;;;;;5083565;28;20193;-67
2022/09/17 02:11:54;;;;;;;2.47;1.48;;;;;;;;;;5083447;28;20228;-68
2022/09/17 02:14:22;;;;;;;2.05;1.13;;;;;;;;;;5083371;28;20238;-67
2022/09/17 02:16:51;;;;;;;7.85;1.25;;;;;;;;;;5083757;28;20258;-68
2022/09/17 02:19:20;;;;;;;1.77;0.90;;;;;;;;;;5083678;28;20422;-69
2022/09/17 02:21:52;;;;;;;1.80;1.00;;;;;;;;;;5083410;28;20205;-67
2022/09/17 02:24:21;;;;;;;2.67;1.00;;;;;;;;;;5083295;28;20208;-67
2022/09/17 02:26:50;;;;;;;3.45;1.15;;;;;;;;;;5083238;28;20250;-69
2022/09/17 02:29:23;;;;;;;1.85;0.90;;;;;;;;;;5083333;28;20197;-69
2022/09/17 02:31:49;;;;;;;1.50;1.20;;;;;;;;;;5083280;28;20214;-68
2022/09/17 02:34:16;;;;;;;2.85;0.80;;;;;;;;;;5082970;28;20267;-67
2022/09/17 02:36:42;;;;;;;2.65;1.10;;;;;;;;;;5083246;28;20220;-67
2022/09/17 02:39:10;;;;;;;1.95;0.80;;;;;;;;;;5083145;28;20501;-67
2022/09/17 02:41:44;;;;;;;2.33;1.00;;;;;;;;;;5082999;28;20197;-68
2022/09/17 02:44:13;;;;;;;1.65;0.80;;;;;;;;;;5083218;28;20527;-67
2022/09/17 02:46:45;;;;;;;1.73;0.98;;;;;;;;;;5083017;28;20493;-67
2022/09/17 02:49:19;;;;;;;6.13;0.98;;;;;;;;;;5083045;28;20200;-67
2022/09/17 02:51:51;;;;;;;4.07;1.13;;;;;;;;;;5082986;28;20203;-68
2022/09/17 02:54:24;;;;;;;2.88;1.00;;;;;;;;;;5083138;28;20183;-67
2022/09/17 02:56:56;;;;;;;1.00;1.00;;;;;;;;;;5082699;28;20217;-69
2022/09/17 02:59:24;;;;;;;1.08;0.93;;;;;;;;;;5082902;28;20197;-69
2022/09/17 03:01:55;;;;;;;1.73;0.93;;;;;;;;;;5082858;28;20578;-69
2022/09/17 03:04:23;;;;;;;1.85;1.08;;;;;;;;;;5082463;28;20234;-69
2022/09/17 03:06:51;;;;;;;1.67;1.15;;;;;;;;;;5082848;28;20200;-69
2022/09/17 03:09:19;;;;;;;2.15;1.05;;;;;;;;;;5081766;28;20201;-69
2022/09/17 03:11:45;;;;;;;5.18;1.02;;;;;;;;;;5082419;28;20196;-69
2022/09/17 03:14:11;;;;;;;4.95;0.90;;;;;;;;;;5082487;28;20196;-69
2022/09/17 03:16:38;;;;;;;1.23;1.15;;;;;;;;;;5082418;28;20220;-69
2022/09/17 03:19:04;;;;;;;3.90;1.02;;;;;;;;;;5082341;28;20235;-69
2022/09/17 03:21:30;;;;;;;2.90;1.30;;;;;;;;;;5082637;28;20326;-69
2022/09/17 03:23:59;;;;;;;4.90;1.17;;;;;;;;;;5082384;28;20211;-69
2022/09/17 03:26:26;;;;;;;1.25;1.00;;;;;;;;;;5082282;28;20432;-69
2022/09/17 03:28:53;;;;;;;2.72;1.20;;;;;;;;;;5082371;28;20204;-69
2022/09/17 03:31:19;;;;;;;2.03;1.10;;;;;;;;;;5082302;28;20277;-69
2022/09/17 03:33:45;;;;;;;2.45;1.25;;;;;;;;;;5082299;28;20550;-69
2022/09/17 03:36:11;;;;;;;1.23;1.13;;;;;;;;;;5082332;28;20222;-69
2022/09/17 03:38:38;;;;;;;1.10;0.85;;;;;;;;;;5082405;28;20200;-69
2022/09/17 03:41:06;;;;;;;5.43;0.95;;;;;;;;;;5082292;28;20373;-69
2022/09/17 03:43:33;;;;;;;5.57;1.27;;;;;;;;;;5082029;28;20263;-69
2022/09/17 03:46:00;;;;;;;3.58;1.33;;;;;;;;;;5082054;28;20196;-69
2022/09/17 03:48:26;;;;;;;4.60;1.15;;;;;;;;;;5082139;28;20196;-69
2022/09/17 03:50:52;;;;;;;2.35;1.13;;;;;;;;;;5082283;28;20483;-69
2022/09/17 03:53:19;;;;;;;0.95;0.90;;;;;;;;;;5082038;28;20404;-69
2022/09/17 03:55:45;;;;;;;2.15;1.27;;;;;;;;;;5082135;28;20213;-69
2022/09/17 03:58:11;;;;;;;2.83;0.80;;;;;;;;;;5082064;28;20196;-69
2022/09/17 04:00:39;;;;;;;5.47;1.17;;;;;;;;;;5082006;28;20204;-69
2022/09/17 04:03:05;;;;;;;4.32;1.00;;;;;;;;;;5081725;28;20203;-69
2022/09/17 04:05:31;;;;;;;7.20;1.00;;;;;;;;;;5082002;28;20216;-69
2022/09/17 04:07:58;;;;;;;2.65;1.30;;;;;;;;;;5081969;28;20203;-69
2022/09/17 04:10:25;;;;;;;7.55;1.35;;;;;;;;;;5082115;28;20203;-69
2022/09/17 04:12:51;;;;;;;6.40;1.40;;;;;;;;;;5081620;28;20197;-67
2022/09/17 04:15:17;;;;;;;4.88;1.30;;;;;;;;;;5081742;28;20266;-69
2022/09/17 04:17:45;;;;;;;1.90;1.02;;;;;;;;;;5082227;28;20196;-69
2022/09/17 04:20:11;;;;;;;3.33;0.80;;;;;;;;;;5083876;28;20396;-69
2022/09/17 04:22:37;;;;;;;4.32;0.90;;;;;;;;;;5085665;28;20204;-69
2022/09/17 04:25:04;;;;;;;4.95;1.17;;;;;;;;;;5085786;28;20211;-69
2022/09/17 04:27:30;;;;;;;3.40;1.00;;;;;;;;;;5085707;28;20205;-69
2022/09/17 04:29:56;;;;;;;1.80;0.90;;;;;;;;;;5085550;28;20242;-69
2022/09/17 04:32:22;;;;;;;3.58;1.00;;;;;;;;;;5085432;28;20196;-69
2022/09/17 04:34:50;;;;;;;2.97;0.88;;;;;;;;;;5085495;28;20242;-69
2022/09/17 04:37:16;;;;;;;6.43;1.30;;;;;;;;;;5085413;28;20216;-69
2022/09/17 04:39:42;;;;;;;5.38;1.55;;;;;;;;;;5085462;28;20241;-69
2022/09/17 04:42:09;;;;;;;4.97;1.20;;;;;;;;;;5085113;28;20202;-70
2022/09/17 04:44:35;;;;;;;2.80;1.05;;;;;;;;;;5085248;28;20204;-70
2022/09/17 04:47:01;;;;;;;3.67;1.17;;;;;;;;;;5085355;28;20518;-70
2022/09/17 04:49:29;;;;;;;4.38;1.20;;;;;;;;;;5085749;28;20200;-70
2022/09/17 04:51:57;;;;;;;4.72;0.90;;;;;;;;;;5084916;28;20201;-70
2022/09/17 04:54:23;;;;;;;5.65;1.00;;;;;;;;;;5085060;28;20196;-69
2022/09/17 04:56:50;;;;;;;4.97;1.52;;;;;;;;;;5085027;28;20221;-69
2022/09/17 04:59:16;;;;;;;4.13;1.13;;;;;;;;;;5085086;28;20429;-69
2022/09/17 05:01:43;;;;;;;3.38;0.90;;;;;;;;;;5085132;28;20395;-69
2022/09/17 05:04:09;;;;;;;3.50;0.90;;;;;;;;;;5084910;28;20203;-70
2022/09/17 05:06:35;;;;;;;2.78;0.85;;;;;;;;;;5084765;28;20213;-70
2022/09/17 05:09:03;;;;;;;2.05;1.13;;;;;;;;;;5084469;28;20306;-70
2022/09/17 05:11:29;;;;;;;4.65;1.30;;;;;;;;;;5084603;28;20196;-70
2022/09/17 05:13:56;;;;;;;5.50;1.55;;;;;;;;;;5084591;28;20204;-69
2022/09/17 05:16:22;;;;;;;5.15;1.30;;;;;;;;;;5084661;28;20273;-69
2022/09/17 05:18:50;;;;;;;6.22;1.45;;;;;;;;;;5084385;28;20432;-69
2022/09/17 05:21:16;;;;;;;5.25;0.98;;;;;;;;;;5084361;28;20504;-70
2022/09/17 05:23:43;;;;;;;6.20;1.33;;;;;;;;;;5083961;28;20222;-69
2022/09/17 05:26:10;;;;;;;2.42;1.10;;;;;;;;;;5084011;28;20441;-69
2022/09/17 05:28:36;;;;;;;2.30;1.00;;;;;;;;;;5084075;28;20197;-69
2022/09/17 05:31:04;;;;;;;6.97;1.10;;;;;;;;;;5083429;28;20280;-69
2022/09/17 05:33:30;;;;;;;5.22;1.25;;;;;;;;;;5084406;28;20404;-70
2022/09/17 05:35:56;;;;;;;6.15;1.30;;;;;;;;;;5083922;28;20535;-70
2022/09/17 05:38:22;;;;;;;5.85;1.40;;;;;;;;;;5084361;28;20197;-70
2022/09/17 05:40:49;;;;;;;5.15;1.25;;;;;;;;;;5084050;28;20204;-70
2022/09/17 05:43:17;;;;;;;6.75;1.73;;;;;;;;;;5084008;28;20235;-70
2022/09/17 05:45:43;;;;;;;4.57;1.75;;;;;;;;;;5084031;28;20193;-69
2022/09/17 05:48:11;;;;;;;10.52;1.50;;;;;;;;;;5083621;28;20249;-69
2022/09/17 05:50:37;;;;;;;5.93;1.25;;;;;;;;;;5084021;28;20204;-70
2022/09/17 05:53:04;;;;;;;6.78;1.33;;;;;;;;;;5083845;28;20258;-69
2022/09/17 05:55:30;;;;;;;6.78;1.58;;;;;;;;;;5084441;28;20200;-70
2022/09/17 05:57:56;;;;;;;4.78;1.27;;;;;;;;;;5084204;28;20196;-70
2022/09/17 06:00:24;;;;;;;5.10;1.42;;;;;;;;;;5084045;28;20430;-69
2022/09/17 06:02:53;;;;;;;5.00;1.70;;;;;;;;;;5084096;28;20604;-70
2022/09/17 06:05:20;;;;;;;8.82;1.38;;;;;;;;;;5085672;28;20232;-70
2022/09/17 06:07:46;;;;;;;7.45;1.90;;;;;;;;;;5084147;28;20205;-70
2022/09/17 06:10:12;;;;;;;7.60;1.05;;;;;;;;;;5083947;28;20504;-69
2022/09/17 06:12:39;;;;;;;7.30;1.20;;;;;;;;;;5083581;28;20423;-70
2022/09/17 06:15:05;;;;;;;2.42;1.20;;;;;;;;;;5083730;28;20504;-70
2022/09/17 06:17:34;;;;;;;9.68;1.40;;;;;;;;;;5083464;28;20220;-70
2022/09/17 06:20:00;;;;;;;4.45;1.33;;;;;;;;;;5083512;28;20196;-70
2022/09/17 06:22:27;;;;;;;5.70;1.42;;;;;;;;;;5083161;28;20197;-70
2022/09/17 06:24:53;;;;;;;5.45;1.35;;;;;;;;;;5083563;28;20212;-70
2022/09/17 06:27:19;;;;;;;8.23;1.20;;;;;;;;;;5083251;28;20200;-70
2022/09/17 06:29:46;;;;;;;4.35;1.10;;;;;;;;;;5083466;28;20278;-70
2022/09/17 06:32:14;;;;;;;7.95;1.38;;;;;;;;;;5083045;28;20234;-70
2022/09/17 06:34:42;;;;;;;3.58;1.30;;;;;;;;;;5083236;28;20196;-70
2022/09/17 06:37:08;;;;;;;8.90;1.60;;;;;;;;;;5083354;28;20444;-70
2022/09/17 06:39:35;;;;;;;6.68;1.27;;;;;;;;;;5083292;28;20200;-70
2022/09/17 06:42:02;;;;;;;4.88;1.50;;;;;;;;;;5083202;28;20196;-70
2022/09/17 06:44:28;;;;;;;4.88;1.33;;;;;;;;;;5083206;28;20391;-70
2022/09/17 06:46:54;;;;;;;4.35;1.55;;;;;;;;;;5083138;28;20500;-70
2022/09/17 06:49:21;;;;;;;8.38;1.23;;;;;;;;;;5082898;28;20250;-70
2022/09/17 06:51:48;;;;;;;9.15;2.03;;;;;;;;;;5083297;28;20197;-70
2022/09/17 06:54:15;;;;;;;6.55;1.52;;;;;;;;;;5082600;28;20203;-70
2022/09/17 06:56:41;;;;;;;4.03;1.35;;;;;;;;;;5082789;28;20221;-69
2022/09/17 06:59:07;;;;;;;8.07;1.35;;;;;;;;;;5082748;28;20196;-70
2022/09/17 07:01:33;;;;;;;5.28;1.67;;;;;;;;;;5082901;28;20196;-70
2022/09/17 07:04:00;;;;;;;5.03;1.65;;;;;;;;;;5082985;28;20242;-70
2022/09/17 07:06:26;;;;;;;3.85;1.13;;;;;;;;;;5082853;28;20290;-70
2022/09/17 07:08:54;;;;;;;3.33;1.15;;;;;;;;;;5082708;28;20205;-70
2022/09/17 07:11:20;;;;;;;5.78;1.50;;;;;;;;;;5082685;28;20196;-70
2022/09/17 07:13:46;;;;;;;3.13;1.48;;;;;;;;;;5082432;28;20219;-70
2022/09/17 07:16:13;;;;;;;6.55;1.40;;;;;;;;;;5082472;28;20212;-70
2022/09/17 07:18:39;;;;;;;3.78;1.40;;;;;;;;;;5082353;28;20192;-70
2022/09/17 07:21:06;;;;;;;7.10;1.17;;;;;;;;;;5082347;28;20496;-70
2022/09/17 07:23:33;;;;;;;5.82;1.27;;;;;;;;;;5082291;28;20196;-70
2022/09/17 07:26:01;;;;;;;3.75;1.00;;;;;;;;;;5082300;28;20219;-70
2022/09/17 07:28:28;;;;;;;6.32;1.45;;;;;;;;;;5082332;28;20242;-70
2022/09/17 07:30:54;;;;;;;5.38;1.50;;;;;;;;;;5082271;28;20196;-70
2022/09/17 07:33:23;;;;;;;6.82;1.30;;;;;;;;;;5081911;28;20219;-70
2022/09/17 07:35:52;;;;;;;3.40;1.10;;;;;;;;;;5082412;28;20270;-70
2022/09/17 07:38:18;;;;;;;5.50;1.30;;;;;;;;;;5082175;28;20203;-70
2022/09/17 07:40:52;;;;;;;4.78;1.40;;;;;;;;;;5082188;28;20196;-70
2022/09/17 07:43:19;;;;;;;3.60;1.33;;;;;;;;;;5082087;28;20197;-70
2022/09/17 07:45:46;;;;;;;3.35;1.27;;;;;;;;;;5082089;28;20286;-70
2022/09/17 07:48:12;;;;;;;6.18;1.50;;;;;;;;;;5082347;28;20246;-70
2022/09/17 07:50:38;;;;;;;4.53;1.42;;;;;;;;;;5082237;28;20211;-70
2022/09/17 07:53:05;;;;;;;1.90;1.30;;;;;;;;;;5081965;28;20201;-70
2022/09/17 07:55:31;;;;;;;2.70;1.10;;;;;;;;;;5081587;28;20204;-70
2022/09/17 07:57:57;;;;;;;1.98;1.33;;;;;;;;;;5081990;28;20405;-70
2022/09/17 08:00:25;;;;;;;3.97;1.63;;;;;;;;;;5082239;28;20208;-70
2022/09/17 08:02:54;;;;;;;8.30;2.20;;;;;;;;;;5081906;28;20196;-70
2022/09/17 08:05:20;;;;;;;3.47;1.40;;;;;;;;;;5082038;28;20216;-70
2022/09/17 08:07:49;;;;;;;5.68;1.58;;;;;;;;;;5081898;28;20192;-70
2022/09/17 08:10:15;;;;;;;6.70;1.52;;;;;;;;;;5081918;28;20204;-70
2022/09/17 08:12:41;;;;;;;1.80;1.60;;;;;;;;;;5081524;28;20234;-70
2022/09/17 08:15:08;;;;;;;7.68;1.70;;;;;;;;;;5082114;28;20200;-70
2022/09/17 08:17:36;;;;;;;3.30;1.63;;;;;;;;;;5081862;28;20220;-70
2022/09/17 08:20:03;;;;;;;2.30;1.25;;;;;;;;;;5081871;28;20272;-70
2022/09/17 08:22:30;;;;;;;4.53;1.50;;;;;;;;;;5081535;28;20200;-70
2022/09/17 08:24:56;;;;;;;5.18;1.52;;;;;;;;;;5081824;28;20196;-70
2022/09/17 08:27:22;;;;;;;2.67;1.42;;;;;;;;;;5081592;28;20407;-70
2022/09/17 08:29:49;;;;;;;4.22;1.38;;;;;;;;;;5081990;28;20533;-70
2022/09/17 08:32:15;;;;;;;3.28;1.48;;;;;;;;;;5081657;28;20201;-70
2022/09/17 08:34:43;;;;;;;3.90;1.50;;;;;;;;;;5081866;28;20427;-70
2022/09/17 08:37:09;;;;;;;5.05;1.48;;;;;;;;;;5081685;28;20229;-70
2022/09/17 08:39:35;;;;;;;6.93;2.40;;;;;;;;;;5081617;28;20266;-70
2022/09/17 08:42:05;;;;;;;5.20;1.30;;;;;;;;;;5081499;28;20204;-70
2022/09/17 08:44:33;;;;;;;5.22;1.50;;;;;;;;;;5081749;28;20227;-70
2022/09/17 08:47:02;;;;;;;3.47;1.27;;;;;;;;;;5081722;28;20200;-70
2022/09/17 08:49:31;;;;;;;6.90;1.55;;;;;;;;;;5081474;28;20223;-70
2022/09/17 08:52:07;;;;;;;6.97;1.83;;;;;;;;;;5081512;28;20200;-70
2022/09/17 08:54:36;;;;;;;6.28;1.83;;;;;;;;;;5081409;28;20204;-70
2022/09/17 08:57:08;;;;;;;6.72;1.95;;;;;;;;;;5081391;28;20220;-69
2022/09/17 08:59:37;;;;;;;5.72;1.55;;;;;;;;;;5081670;28;20213;-70
2022/09/17 09:02:13;;;;;;;9.38;2.10;;;;;;;;;;5081386;28;20200;-69
2022/09/17 09:04:49;;;;;;;9.60;1.92;;;;;;;;;;5081426;28;20196;-70
2022/09/17 09:07:20;;;;;;;6.28;1.77;;;;;;;;;;5083235;28;20185;-70
2022/09/17 09:09:48;;;;;;;5.20;1.73;;;;;;;;;;5085134;28;20224;-70
2022/09/17 09:12:16;;;;;;;5.38;1.95;;;;;;;;;;5084930;28;20317;-70
2022/09/17 09:14:48;;;;;;;9.52;2.40;;;;;;;;;;5085017;28;20250;-70
2022/09/17 09:17:17;;;;;;;4.55;1.70;;;;;;;;;;5084657;28;20212;-70
2022/09/17 09:19:44;;;;;;;4.55;2.00;;;;;;;;;;5084766;28;20196;-70
2022/09/17 09:22:17;;;;;;;4.03;1.70;;;;;;;;;;5084665;28;20197;-70
2022/09/17 09:24:49;;;;;;;7.70;2.55;;;;;;;;;;5084891;28;20372;-70
2022/09/17 09:27:17;;;;;;;10.73;1.98;;;;;;;;;;5084487;28;20200;-70
2022/09/17 09:29:47;;;;;;;5.95;1.33;;;;;;;;;;5085024;28;20242;-70
2022/09/17 09:32:18;;;;;;;8.10;1.95;;;;;;;;;;5084379;28;20200;-71
2022/09/17 09:34:45;;;;;;;10.93;2.00;;;;;;;;;;5084702;28;20196;-70
2022/09/17 09:37:15;;;;;;;9.88;1.83;;;;;;;;;;5084438;28;20216;-70
2022/09/17 09:39:42;;;;;;;8.77;1.77;;;;;;;;;;5084656;28;20222;-70
2022/09/17 09:42:14;;;;;;;8.77;2.20;;;;;;;;;;5084492;28;20196;-70
2022/09/17 09:44:41;;;;;;;10.98;2.30;;;;;;;;;;5084664;28;20200;-69
2022/09/17 09:47:14;;;;;;;8.63;1.90;;;;;;;;;;5084515;28;20196;-69
2022/09/17 09:49:45;;;;;;;9.40;2.50;;;;;;;;;;5084282;28;20196;-69
2022/09/17 09:52:19;;;;;;;9.65;2.30;;;;;;;;;;5084064;28;20222;-69
2022/09/17 09:54:54;;;;;;;4.63;2.08;;;;;;;;;;5084226;28;20202;-69
2022/09/17 09:57:25;;;;;;;11.73;2.28;;;;;;;;;;5084175;28;20330;-70
2022/09/17 09:59:51;;;;;;;10.80;2.30;;;;;;;;;;5084276;28;20204;-70
2022/09/17 10:02:17;;;;;;;6.18;2.28;;;;;;;;;;5083798;28;20201;-70
2022/09/17 10:04:43;;;;;;;11.32;2.00;;;;;;;;;;5083803;28;20242;-69
2022/09/17 10:07:11;;;;;;;11.52;2.28;;;;;;;;;;5083854;28;20230;-70
2022/09/17 10:09:38;;;;;;;6.57;2.08;;;;;;;;;;5083729;28;20206;-69
2022/09/17 10:12:05;;;;;;;5.95;1.50;;;;;;;;;;5083694;28;20207;-70
2022/09/17 10:14:34;;;;;;;11.48;2.28;;;;;;;;;;5083729;28;20250;-70
2022/09/17 10:17:18;;;;;;;9.48;2.15;;;;;;;;;;5083323;28;20213;-70
2022/09/17 10:19:45;;;;;;;4.28;1.77;;;;;;;;;;5083553;28;20223;-69
2022/09/17 10:22:19;;;;;;;10.30;2.15;;;;;;;;;;5083602;28;20380;-69
2022/09/17 10:24:45;;;;;;;6.53;1.88;;;;;;;;;;5083763;28;20612;-69
2022/09/17 10:27:13;;;;;;;6.80;2.08;;;;;;;;;;5083744;28;20204;-70
2022/09/17 10:29:44;;;;;;;9.10;2.30;;;;;;;;;;5083529;28;20200;-69
2022/09/17 10:32:14;;;;;;;7.55;1.65;;;;;;;;;;5083312;28;20430;-70
2022/09/17 10:34:41;;;;;;;7.85;2.47;;;;;;;;;;5083600;28;20210;-69
2022/09/17 10:37:30;;;;;;;7.38;2.00;;;;;;;;;;5083314;28;20531;-69
2022/09/17 10:39:56;;;;;;;5.35;1.73;;;;;;;;;;5083640;28;20220;-70
2022/09/17 10:42:23;;;;;;;5.75;1.58;;;;;;;;;;5082916;28;20208;-69
2022/09/17 10:44:52;;;;;;;9.02;1.77;;;;;;;;;;5083131;28;20197;-70
2022/09/17 10:47:20;;;;;;;3.53;1.88;;;;;;;;;;5082749;28;20492;-70
2022/09/17 10:49:47;;;;;;;6.30;1.55;;;;;;;;;;5082756;28;20283;-69
2022/09/17 10:52:21;;;;;;;5.07;1.92;;;;;;;;;;5082404;28;20201;-69
2022/09/17 10:55:14;;;;;;;1.75;1.58;;;;;;;;;;5082523;28;20273;-70
2022/09/17 10:57:52;;;;;;;5.10;1.40;;;;;;;;;;5082592;28;20220;-69
2022/09/17 11:00:22;;;;;;;21.83;17.88;;;;;;;;;;5082548;28;20196;-70
2022/09/17 11:03:04;;;;;;;3.58;1.52;;;;;;;;;;5082343;28;20373;-69
2022/09/17 11:05:38;;;;;;;2.97;1.02;;;;;;;;;;5082073;28;20496;-69
2022/09/17 11:08:08;;;;;;;6.90;1.25;;;;;;;;;;5082443;28;20195;-69
2022/09/17 11:10:36;;;;;;;4.13;1.30;;;;;;;;;;5082178;28;20200;-69
2022/09/17 11:13:08;;;;;;;3.80;0.90;;;;;;;;;;5081993;28;20203;-70
2022/09/17 11:15:44;;;;;;;3.03;1.00;;;;;;;;;;5082278;28;20208;-69
2022/09/17 11:18:25;;;;;;;4.72;1.20;;;;;;;;;;5081982;28;20215;-69
2022/09/17 11:21:07;;;;;;;3.35;1.02;;;;;;;;;;5082313;28;20234;-69
2022/09/17 11:23:52;;;;;;;3.05;0.90;;;;;;;;;;5069118;28;20219;-70
2022/09/17 11:26:25;;;;;;;4.18;1.40;;;;;;;;;;5081846;28;20279;-69
2022/09/17 11:28:55;;;;;;;3.70;1.20;;;;;;;;;;5081275;28;20200;-70
2022/09/17 11:31:30;;;;;;;6.20;1.30;;;;;;;;;;5081973;28;20203;-70
2022/09/17 11:34:03;;;;;;;1.98;1.17;;;;;;;;;;5081657;28;20221;-69
2022/09/17 11:36:33;;;;;;;1.17;1.08;;;;;;;;;;5081750;28;20196;-70
2022/09/17 11:39:03;;;;;;;1.92;0.98;;;;;;;;;;5081527;28;20227;-69
2022/09/17 11:41:32;;;;;;;3.17;0.93;;;;;;;;;;5081915;28;20208;-69
2022/09/17 11:44:03;;;;;;;2.58;1.10;;;;;;;;;;5081571;28;20205;-69
2022/09/17 11:46:34;;;;;;;3.78;1.00;;;;;;;;;;5081713;28;20199;-69
2022/09/17 11:49:02;;;;;;;3.22;0.77;;;;;;;;;;5081587;28;20199;-69
2022/09/17 11:51:31;;;;;;;4.55;1.00;;;;;;;;;;5081552;28;20196;-70
2022/09/17 11:53:59;;;;;;;3.38;1.15;;;;;;;;;;5081492;28;20427;-70
2022/09/17 11:56:29;;;;;;;2.03;0.80;;;;;;;;;;5081983;28;20200;-70
2022/09/17 11:58:58;;;;;;;2.90;1.00;;;;;;;;;;5081766;28;20209;-69
2022/09/17 12:01:29;;;;;;;6.20;3.53;;;;;;;;;;5081476;28;20196;-69
2022/09/17 12:03:59;;;;;;;5.45;1.33;;;;;;;;;;5081368;28;20398;-69
2022/09/17 12:06:28;;;;;;;4.47;1.00;;;;;;;;;;5081557;28;20224;-70
2022/09/17 12:08:57;;;;;;;1.52;0.95;;;;;;;;;;5081565;28;20192;-69
2022/09/17 12:11:27;;;;;;;3.22;0.80;;;;;;;;;;5081503;28;20207;-70
2022/09/17 12:13:54;;;;;;;3.75;1.17;;;;;;;;;;5081286;28;20216;-69
2022/09/17 12:16:23;;;;;;;1.60;0.68;;;;;;;;;;5081262;28;20200;-69
2022/09/17 12:18:53;;;;;;;2.90;0.85;;;;;;;;;;5081157;28;20230;-69
2022/09/17 12:21:23;;;;;;;1.52;0.70;;;;;;;;;;5081431;28;20196;-69
2022/09/17 12:23:51;;;;;;;4.05;1.00;;;;;;;;;;5081393;28;20196;-70
2022/09/17 12:26:24;;;;;;;8.00;1.15;;;;;;;;;;5081286;28;20495;-69
2022/09/17 12:28:53;;;;;;;5.35;0.80;;;;;;;;;;5081264;28;20196;-70
2022/09/17 12:31:23;;;;;;;3.08;0.98;;;;;;;;;;5081160;28;20197;-70
2022/09/17 12:33:52;;;;;;;2.75;1.33;;;;;;;;;;5080893;28;20203;-69
2022/09/17 12:36:24;;;;;;;1.75;0.60;;;;;;;;;;5081308;28;20200;-69
2022/09/17 12:38:58;;;;;;;1.73;0.80;;;;;;;;;;5081127;28;20221;-69
2022/09/17 12:41:26;;;;;;;1.58;0.80;;;;;;;;;;5083137;28;20279;-69
2022/09/17 12:44:01;;;;;;;1.70;0.80;;;;;;;;;;5084948;28;20201;-70
2022/09/17 12:46:36;;;;;;;5.25;1.48;;;;;;;;;;5085043;28;20196;-70
2022/09/17 12:49:18;;;;;;;5.55;1.35;;;;;;;;;;5084879;28;20207;-70
2022/09/17 12:51:53;;;;;;;2.90;1.20;;;;;;;;;;5072349;28;20203;-69
2022/09/17 12:54:24;;;;;;;3.30;1.30;;;;;;;;;;5085308;28;20518;-70
2022/09/17 12:56:53;;;;;;;2.30;1.08;;;;;;;;;;5085415;28;20196;-69
2022/09/17 12:59:22;;;;;;;1.73;0.90;;;;;;;;;;5085206;28;20222;-69
2022/09/17 13:01:52;;;;;;;4.40;1.10;;;;;;;;;;5085014;28;20423;-70
2022/09/17 13:04:30;;;;;;;4.30;1.10;;;;;;;;;;5084727;28;20226;-70
2022/09/17 13:07:03;;;;;;;6.35;1.42;;;;;;;;;;5085163;28;20226;-69
2022/09/17 13:09:41;;;;;;;1.80;0.90;;;;;;;;;;5084967;28;20193;-70
2022/09/17 13:12:15;;;;;;;2.90;0.90;;;;;;;;;;5084921;28;20204;-70
2022/09/17 13:14:54;;;;;;;1.48;0.98;;;;;;;;;;5084908;28;20202;-69
2022/09/17 13:17:24;;;;;;;0.60;0.60;;;;;;;;;;5085322;28;20488;-70
2022/09/17 13:19:57;;;;;;;1.85;0.60;;;;;;;;;;5084529;28;20228;-69
2022/09/17 13:22:27;;;;;;;2.17;0.77;;;;;;;;;;5084515;28;20196;-69
2022/09/17 13:25:01;;;;;;;2.10;0.60;;;;;;;;;;5084801;28;20196;-69
2022/09/17 13:27:28;;;;;;;1.80;0.60;;;;;;;;;;5084342;28;20203;-70
2022/09/17 13:29:58;;;;;;;1.60;0.88;;;;;;;;;;5085100;28;20526;-70
2022/09/17 13:32:43;;;;;;;0.88;0.47;;;;;;;;;;5084412;28;20203;-69
2022/09/17 13:35:28;;;;;;;0.73;0.38;;;;;;;;;;5084660;28;20200;-70
2022/09/17 13:37:57;;;;;;;0.60;0.60;;;;;;;;;;5084542;28;20192;-70
2022/09/17 13:40:24;;;;;;;1.02;0.68;;;;;;;;;;5084832;28;20200;-69
2022/09/17 13:42:51;;;;;;;1.55;0.70;;;;;;;;;;5084291;28;20196;-69
2022/09/17 13:45:19;;;;;;;0.75;0.68;;;;;;;;;;5084344;28;20200;-69
2022/09/17 13:47:50;;;;;;;0.57;0.57;;;;;;;;;;5084321;28;20242;-69
2022/09/17 13:50:25;;;;;;;0.70;0.70;;;;;;;;;;5084083;28;20200;-69
2022/09/17 13:52:51;;;;;;;0.95;0.50;;;;;;;;;;5083302;28;20402;-69
2022/09/17 13:55:33;;;;;;;1.42;0.70;;;;;;;;;;5084302;28;20201;-69
2022/09/17 13:58:00;;;;;;;0.85;0.52;;;;;;;;;;5084014;28;20196;-70
2022/09/17 14:00:46;;;;;;;0.70;0.57;;;;;;;;;;5083945;28;20208;-70
2022/09/17 14:03:47;;;;;;;0.70;0.60;;;;;;;;;;5083764;28;20227;-69
2022/09/17 14:06:32;;;;;;;1.40;0.80;;;;;;;;;;5022098;28;20262;-70
2022/09/17 14:08:59;;;;;;;0.57;0.50;;;;;;;;;;5021880;28;20532;-69
2022/09/17 14:11:39;;;;;;;0.55;0.43;;;;;;;;;;5057458;28;20211;-69
2022/09/17 14:14:39;;;;;;;1.48;0.40;;;;;;;;;;5083452;28;20196;-70
2022/09/17 14:17:05;;;;;;;0.60;0.60;;;;;;;;;;5083638;28;20204;-70
2022/09/17 14:19:34;;;;;;;2.00;0.80;;;;;;;;;;5083478;28;20228;-70
2022/09/17 14:22:02;;;;;;;1.10;0.45;;;;;;;;;;5083750;28;20197;-69
2022/09/17 14:24:33;;;;;;;1.55;0.90;;;;;;;;;;5083432;28;20435;-69
2022/09/17 14:27:09;;;;;;;0.60;0.55;;;;;;;;;;5083377;28;20207;-69
2022/09/17 14:29:45;;;;;;;0.68;0.65;;;;;;;;;;5083379;28;20422;-69
2022/09/17 14:32:14;;;;;;;1.67;0.73;;;;;;;;;;5083297;28;20249;-70
2022/09/17 14:34:41;;;;;;;3.88;0.75;;;;;;;;;;5083396;28;20203;-69
2022/09/17 14:37:09;;;;;;;3.47;0.63;;;;;;;;;;5083289;28;20342;-69
2022/09/17 14:39:37;;;;;;;2.72;0.75;;;;;;;;;;5083123;28;20226;-70
2022/09/17 14:42:05;;;;;;;1.80;0.75;;;;;;;;;;5083054;28;20196;-69
2022/09/17 14:44:34;;;;;;;2.95;1.23;;;;;;;;;;5082827;28;20519;-70
2022/09/17 14:47:02;;;;;;;0.70;0.68;;;;;;;;;;5083146;28;20197;-69
2022/09/17 14:49:30;;;;;;;1.20;0.90;;;;;;;;;;5083120;28;20192;-69
2022/09/17 14:51:57;;;;;;;2.38;0.60;;;;;;;;;;5083397;28;20484;-69
2022/09/17 14:54:25;;;;;;;1.95;1.02;;;;;;;;;;5082696;28;20227;-69